createdAt,value
2022-09-23T00:00:50.428Z,6.05
2022-09-23T00:03:17.386Z,8.00
2022-09-23T00:05:44.510Z,6.13
2022-09-23T00:08:11.626Z,5.75
2022-09-23T00:10:39.508Z,6.05
2022-09-23T00:13:06.482Z,5.65
2022-09-23T00:15:38.404Z,6.18
2022-09-23T00:18:05.468Z,5.85
2022-09-23T00:20:36.647Z,5.97
2022-09-23T00:23:03.575Z,5.82
2022-09-23T00:25:30.453Z,5.70
2022-09-23T00:27:58.950Z,6.30
2022-09-23T00:30:25.903Z,5.90
2022-09-23T00:32:53.136Z,5.85
2022-09-23T00:35:20.296Z,5.43
2022-09-23T00:37:47.180Z,5.28
2022-09-23T00:40:14.293Z,5.53
2022-09-23T00:42:52.040Z,5.85
2022-09-23T00:45:19.415Z,5.70
2022-09-23T00:47:56.728Z,6.00
2022-09-23T00:50:25.854Z,5.47
2022-09-23T00:52:54.311Z,5.65
2022-09-23T00:55:28.692Z,5.70
2022-09-23T00:57:57.148Z,5.93
2022-09-23T01:00:24.114Z,5.10
2022-09-23T01:02:51.654Z,5.35
2022-09-23T01:05:18.971Z,5.82
2022-09-23T01:07:46.188Z,6.13
2022-09-23T01:10:13.886Z,6.13
2022-09-23T01:13:05.726Z,6.25
2022-09-23T01:15:59.750Z,6.30
2022-09-23T01:18:29.816Z,6.88
2022-09-23T01:21:07.122Z,7.43
2022-09-23T01:24:11.120Z,7.22
2022-09-23T01:27:09.116Z,7.28
2022-09-23T01:29:41.333Z,7.57
2022-09-23T01:32:23.290Z,7.32
2022-09-23T01:37:28.530Z,7.85
2022-09-23T01:40:04.524Z,6.90
2022-09-23T01:42:32.792Z,7.10
2022-09-23T01:45:46.619Z,7.10
2022-09-23T01:48:23.828Z,7.28
2022-09-23T01:50:57.481Z,7.05
2022-09-23T01:53:33.051Z,7.03
2022-09-23T01:56:03.523Z,7.60
2022-09-23T01:58:41.965Z,7.97
2022-09-23T02:01:09.247Z,7.70
2022-09-23T02:03:44.963Z,7.10
2022-09-23T02:06:15.562Z,7.60
2022-09-23T02:08:47.788Z,7.45
2022-09-23T02:11:15.569Z,6.88
2022-09-23T02:13:59.983Z,6.95
2022-09-23T02:16:42.323Z,7.07
2022-09-23T02:19:28.005Z,7.13
2022-09-23T02:22:03.883Z,7.50
2022-09-23T02:24:31.645Z,7.35
2022-09-23T02:27:20.584Z,6.78
2022-09-23T02:29:59.521Z,6.75
2022-09-23T02:33:00.805Z,7.00
2022-09-23T02:35:35.506Z,6.30
2022-09-23T02:38:27.353Z,6.57
2022-09-23T02:41:01.623Z,6.70
2022-09-23T02:43:53.957Z,6.90
2022-09-23T02:46:21.230Z,6.45
2022-09-23T02:48:56.883Z,5.93
2022-09-23T02:51:28.891Z,6.43
2022-09-23T02:53:56.488Z,6.50
2022-09-23T02:56:23.356Z,6.63
2022-09-23T02:58:51.946Z,6.18
2022-09-23T03:01:35.085Z,6.45
2022-09-23T03:04:34.175Z,6.30
2022-09-23T03:07:09.025Z,6.40
2022-09-23T03:09:38.802Z,5.68
2022-09-23T03:12:21.602Z,5.95
2022-09-23T03:15:00.539Z,5.75
2022-09-23T03:17:58.996Z,6.05
2022-09-23T03:20:34.228Z,6.07
2022-09-23T03:23:03.431Z,6.60
2022-09-23T03:25:34.556Z,5.72
2022-09-23T03:28:01.857Z,6.80
2022-09-23T03:30:28.926Z,5.88
2022-09-23T03:32:55.816Z,5.85
2022-09-23T03:35:24.244Z,6.57
2022-09-23T03:38:16.067Z,5.93
2022-09-23T03:40:43.764Z,5.93
2022-09-23T03:43:13.415Z,6.07
2022-09-23T03:45:41.377Z,6.28
2022-09-23T03:48:08.365Z,6.15
2022-09-23T03:50:39.243Z,5.90
2022-09-23T03:53:06.977Z,5.97
2022-09-23T03:55:34.849Z,5.97
2022-09-23T03:58:03.247Z,5.75
2022-09-23T04:00:30.093Z,5.75
2022-09-23T04:02:57.307Z,6.10
2022-09-23T04:05:24.187Z,5.93
2022-09-23T04:07:51.179Z,5.65
2022-09-23T04:10:18.223Z,5.95
2022-09-23T04:12:45.185Z,5.25
2022-09-23T04:15:12.362Z,6.13
2022-09-23T04:17:39.284Z,5.82
2022-09-23T04:20:06.600Z,5.78
2022-09-23T04:22:34.369Z,6.50
2022-09-23T04:25:01.296Z,5.90
2022-09-23T04:27:28.167Z,6.18
2022-09-23T04:29:55.037Z,6.32
2022-09-23T04:32:22.064Z,6.03
2022-09-23T04:34:49.140Z,6.28
2022-09-23T04:37:16.140Z,5.97
2022-09-23T04:39:43.399Z,6.55
2022-09-23T04:42:10.409Z,6.10
2022-09-23T04:44:38.942Z,6.38
2022-09-23T04:47:06.048Z,6.32
2022-09-23T04:49:33.716Z,5.85
2022-09-23T04:52:00.963Z,6.00
2022-09-23T04:54:28.187Z,6.15
2022-09-23T04:56:55.752Z,5.97
2022-09-23T04:59:22.714Z,6.28
2022-09-23T05:01:52.016Z,6.63
2022-09-23T05:04:18.968Z,7.13
2022-09-23T05:06:46.495Z,6.60
2022-09-23T05:09:16.447Z,6.47
2022-09-23T05:11:47.273Z,6.30
2022-09-23T05:14:14.536Z,6.55
2022-09-23T05:16:41.541Z,6.55
2022-09-23T05:19:08.921Z,6.40
2022-09-23T05:21:37.172Z,6.18
2022-09-23T05:24:04.292Z,6.78
2022-09-23T05:26:32.019Z,6.82
2022-09-23T05:28:59.510Z,7.30
2022-09-23T05:31:27.959Z,7.18
2022-09-23T05:33:59.670Z,6.88
2022-09-23T05:36:27.557Z,7.38
2022-09-23T05:38:56.625Z,7.80
2022-09-23T05:41:23.844Z,7.13
2022-09-23T05:43:51.851Z,7.80
2022-09-23T05:46:27.933Z,7.70
2022-09-23T05:49:02.225Z,7.53
2022-09-23T05:51:31.178Z,7.57
2022-09-23T05:53:58.830Z,7.68
2022-09-23T05:56:26.874Z,7.57
2022-09-23T05:58:55.419Z,7.97
2022-09-23T06:01:27.736Z,8.63
2022-09-23T06:03:56.015Z,8.27
2022-09-23T06:06:32.811Z,8.73
2022-09-23T06:09:00.290Z,8.20
2022-09-23T06:11:29.891Z,7.82
2022-09-23T06:14:00.993Z,7.45
2022-09-23T06:16:28.725Z,6.57
2022-09-23T06:18:55.909Z,7.65
2022-09-23T06:21:22.992Z,7.75
2022-09-23T06:23:52.733Z,7.07
2022-09-23T06:26:22.634Z,6.47
2022-09-23T06:28:50.266Z,7.60
2022-09-23T06:31:17.484Z,6.63
2022-09-23T06:33:45.054Z,7.18
2022-09-23T06:36:16.354Z,7.40
2022-09-23T06:38:51.460Z,8.45
2022-09-23T06:41:20.704Z,8.40
2022-09-23T06:43:48.082Z,9.02
2022-09-23T06:46:16.251Z,9.05
2022-09-23T06:48:46.182Z,8.95
2022-09-23T06:51:19.368Z,9.73
2022-09-23T06:53:47.619Z,10.57
2022-09-23T06:56:14.589Z,10.18
2022-09-23T06:58:41.541Z,10.27
2022-09-23T07:01:12.343Z,10.40
2022-09-23T07:03:39.413Z,10.20
2022-09-23T07:06:06.891Z,9.45
2022-09-23T07:08:34.088Z,10.18
2022-09-23T07:11:03.516Z,8.88
2022-09-23T07:13:30.707Z,10.40
2022-09-23T07:16:02.089Z,9.02
2022-09-23T07:18:36.621Z,8.98
2022-09-23T07:21:08.090Z,8.77
2022-09-23T07:23:35.130Z,8.95
2022-09-23T07:26:02.171Z,8.43
2022-09-23T07:28:29.239Z,8.63
2022-09-23T07:31:00.361Z,8.88
2022-09-23T07:33:33.077Z,8.05
2022-09-23T07:36:05.160Z,8.50
2022-09-23T07:38:32.049Z,8.02
2022-09-23T07:41:09.337Z,8.40
2022-09-23T07:43:37.186Z,7.88
2022-09-23T07:46:10.299Z,7.35
2022-09-23T07:48:37.631Z,7.63
2022-09-23T07:51:09.462Z,7.38
2022-09-23T07:53:36.975Z,7.35
2022-09-23T07:56:05.777Z,7.53
2022-09-23T07:58:33.172Z,7.18
2022-09-23T08:01:07.680Z,7.28
2022-09-23T08:03:35.245Z,7.20
2022-09-23T08:06:11.196Z,7.63
2022-09-23T08:08:43.548Z,7.10
2022-09-23T08:11:11.853Z,6.25
2022-09-23T08:13:38.730Z,6.63
2022-09-23T08:16:06.795Z,7.43
2022-09-23T08:18:34.160Z,6.35
2022-09-23T08:21:01.571Z,7.18
2022-09-23T08:23:33.593Z,7.05
2022-09-23T08:26:02.101Z,6.78
2022-09-23T08:28:29.117Z,6.70
2022-09-23T08:30:56.092Z,6.88
2022-09-23T08:33:23.887Z,6.53
2022-09-23T08:35:51.500Z,7.22
2022-09-23T08:38:19.028Z,7.25
2022-09-23T08:40:48.520Z,6.68
2022-09-23T08:43:26.840Z,6.50
2022-09-23T08:45:54.404Z,7.03
2022-09-23T08:48:31.243Z,7.10
2022-09-23T08:51:26.237Z,6.68
2022-09-23T08:53:53.292Z,6.63
2022-09-23T08:56:22.425Z,6.88
2022-09-23T08:59:16.795Z,6.32
2022-09-23T09:01:45.222Z,6.40
2022-09-23T09:04:16.531Z,6.03
2022-09-23T09:07:24.531Z,6.50
2022-09-23T09:10:16.783Z,6.10
2022-09-23T09:12:48.224Z,6.20
2022-09-23T09:15:27.378Z,7.28
2022-09-23T09:18:12.411Z,6.78
2022-09-23T09:21:00.651Z,7.60
2022-09-23T09:23:49.861Z,6.88
2022-09-23T09:26:23.447Z,7.68
2022-09-23T09:28:59.072Z,8.85
2022-09-23T09:31:38.093Z,10.20
2022-09-23T09:34:21.132Z,10.07
2022-09-23T09:36:57.822Z,11.77
2022-09-23T09:39:26.324Z,11.05
2022-09-23T09:41:55.499Z,11.95
2022-09-23T09:44:42.902Z,12.02
2022-09-23T09:47:15.488Z,11.73
2022-09-23T09:49:59.900Z,10.85
2022-09-23T09:52:29.743Z,11.82
2022-09-23T09:55:15.167Z,12.80
2022-09-23T09:57:48.065Z,11.27
2022-09-23T10:00:26.486Z,11.57
2022-09-23T10:03:18.683Z,11.45
2022-09-23T10:05:47.549Z,12.30
2022-09-23T10:08:33.546Z,12.07
2022-09-23T10:11:04.860Z,11.02
2022-09-23T10:13:32.046Z,11.63
2022-09-23T10:16:03.116Z,11.15
2022-09-23T10:18:32.082Z,11.52
2022-09-23T10:21:10.832Z,11.32
2022-09-23T10:23:42.705Z,11.75
2022-09-23T10:26:10.314Z,10.82
2022-09-23T10:28:47.525Z,11.63
2022-09-23T10:31:34.528Z,11.13
2022-09-23T10:34:26.371Z,10.85
2022-09-23T10:37:03.110Z,11.45
2022-09-23T10:39:48.334Z,10.95
2022-09-23T10:42:45.295Z,10.98
2022-09-23T10:45:39.854Z,10.60
2022-09-23T10:48:36.179Z,10.88
2022-09-23T10:51:26.085Z,10.52
2022-09-23T10:54:02.726Z,10.20
2022-09-23T10:56:38.714Z,10.13
2022-09-23T10:59:12.249Z,10.73
2022-09-23T11:01:51.272Z,10.43
2022-09-23T11:04:54.759Z,9.57
2022-09-23T11:07:38.971Z,8.80
2022-09-23T11:10:46.515Z,7.50
2022-09-23T11:13:24.926Z,7.85
2022-09-23T11:16:18.658Z,7.97
2022-09-23T11:18:48.455Z,8.10
2022-09-23T11:21:21.129Z,7.57
2022-09-23T11:23:56.936Z,7.35
2022-09-23T11:27:08.506Z,6.25
2022-09-23T11:29:53.657Z,6.53
2022-09-23T11:32:42.225Z,6.65
2022-09-23T11:35:25.046Z,7.13
2022-09-23T11:37:55.946Z,6.30
2022-09-23T11:40:24.533Z,7.80
2022-09-23T11:42:58.232Z,6.72
2022-09-23T11:45:29.202Z,7.30
2022-09-23T11:48:27.770Z,6.50
2022-09-23T11:51:21.545Z,6.07
2022-09-23T11:54:19.745Z,5.57
2022-09-23T11:56:53.096Z,5.43
2022-09-23T11:59:40.669Z,5.03
2022-09-23T12:02:25.745Z,5.03
2022-09-23T12:05:10.673Z,5.95
2022-09-23T12:07:46.670Z,5.85
2022-09-23T12:10:16.814Z,6.85
2022-09-23T12:12:58.605Z,5.38
2022-09-23T12:15:39.508Z,4.65
2022-09-23T12:18:10.643Z,5.22
2022-09-23T12:20:43.660Z,4.35
2022-09-23T12:23:25.707Z,4.15
2022-09-23T12:26:01.938Z,4.55
2022-09-23T12:28:33.699Z,4.90
2022-09-23T12:31:01.217Z,4.75
2022-09-23T12:33:30.499Z,4.85
2022-09-23T12:36:07.585Z,4.40
2022-09-23T12:38:53.582Z,4.63
2022-09-23T12:41:23.998Z,4.70
2022-09-23T12:43:56.897Z,4.65
2022-09-23T12:46:25.737Z,5.28
2022-09-23T12:48:58.951Z,4.68
2022-09-23T12:51:27.286Z,4.82
2022-09-23T12:53:59.697Z,5.65
2022-09-23T12:56:55.966Z,5.30
2022-09-23T12:59:30.621Z,5.20
2022-09-23T13:01:58.151Z,5.35
2022-09-23T13:04:46.788Z,5.70
2022-09-23T13:07:16.574Z,5.40
2022-09-23T13:09:46.805Z,5.10
2022-09-23T13:12:40.957Z,5.20
2022-09-23T13:15:34.020Z,5.13
2022-09-23T13:18:20.285Z,5.25
2022-09-23T13:20:48.513Z,5.15
2022-09-23T13:23:33.866Z,4.88
2022-09-23T13:26:01.962Z,4.68
2022-09-23T13:28:33.111Z,4.03
2022-09-23T13:31:04.792Z,4.22
2022-09-23T13:33:34.596Z,4.30
2022-09-23T13:36:02.754Z,3.90
2022-09-23T13:38:32.072Z,3.78
2022-09-23T13:41:09.882Z,3.50
2022-09-23T13:43:50.987Z,3.47
2022-09-23T13:46:22.803Z,3.53
2022-09-23T13:48:51.988Z,3.60
2022-09-23T13:51:23.277Z,3.60
2022-09-23T13:54:00.951Z,3.42
2022-09-23T13:56:32.255Z,2.95
2022-09-23T13:59:24.787Z,3.20
2022-09-23T14:02:02.188Z,3.30
2022-09-23T14:04:29.200Z,3.10
2022-09-23T14:06:56.065Z,3.30
2022-09-23T14:09:24.936Z,3.88
2022-09-23T14:11:52.223Z,4.00
2022-09-23T14:14:19.522Z,3.58
2022-09-23T14:16:49.081Z,4.53
2022-09-23T14:19:20.475Z,3.88
2022-09-23T14:21:51.701Z,4.40
2022-09-23T14:24:21.488Z,4.00
2022-09-23T14:27:06.857Z,4.72
2022-09-23T14:29:35.222Z,4.72
2022-09-23T14:32:04.592Z,4.80
2022-09-23T14:34:50.844Z,5.05
2022-09-23T14:37:51.737Z,4.82
2022-09-23T14:40:22.803Z,5.95
2022-09-23T14:42:52.195Z,5.70
2022-09-23T14:45:21.462Z,5.55
2022-09-23T14:48:25.734Z,5.75
2022-09-23T14:50:56.390Z,4.95
2022-09-23T14:53:23.316Z,5.88
2022-09-23T14:56:08.555Z,5.40
2022-09-23T14:58:52.632Z,5.50
2022-09-23T15:01:26.534Z,5.50
2022-09-23T15:03:54.511Z,5.78
2022-09-23T15:06:22.383Z,5.50
2022-09-23T15:08:49.332Z,6.00
2022-09-23T15:11:16.334Z,6.05
2022-09-23T15:13:46.276Z,6.13
2022-09-23T15:16:14.407Z,5.70
2022-09-23T15:18:43.188Z,5.53
2022-09-23T15:21:14.650Z,6.07
2022-09-23T15:23:44.594Z,5.53
2022-09-23T15:26:18.242Z,6.03
2022-09-23T15:28:45.850Z,5.85
2022-09-23T15:31:17.575Z,5.50
2022-09-23T15:33:48.266Z,5.57
2022-09-23T15:36:16.925Z,6.37
2022-09-23T15:38:44.258Z,6.40
2022-09-23T15:41:11.263Z,6.47
2022-09-23T15:43:40.011Z,6.18
2022-09-23T15:46:08.843Z,6.10
2022-09-23T15:48:38.689Z,6.70
2022-09-23T15:51:07.084Z,5.93
2022-09-23T15:53:34.339Z,6.68
2022-09-23T15:56:01.639Z,5.88
2022-09-23T15:58:28.895Z,6.00
2022-09-23T16:00:57.249Z,5.63
2022-09-23T16:03:28.891Z,5.75
2022-09-23T16:08:26.072Z,5.60
2022-09-23T16:10:55.553Z,5.07
2022-09-23T16:13:23.953Z,5.32
2022-09-23T16:15:51.033Z,5.15
2022-09-23T16:18:18.357Z,5.30
2022-09-23T16:20:45.974Z,5.72
2022-09-23T16:23:34.782Z,5.15
2022-09-23T16:26:03.017Z,5.78
2022-09-23T16:28:30.022Z,5.80
2022-09-23T16:30:56.988Z,5.80
2022-09-23T16:33:24.236Z,6.28
2022-09-23T16:35:51.850Z,6.93
2022-09-23T16:38:18.883Z,6.43
2022-09-23T16:40:47.328Z,6.68
2022-09-23T16:43:14.649Z,6.38
2022-09-23T16:45:41.699Z,7.13
2022-09-23T16:48:11.429Z,7.03
2022-09-23T16:50:40.099Z,6.25
2022-09-23T16:53:07.076Z,7.28
2022-09-23T16:55:34.029Z,6.22
2022-09-23T16:58:01.149Z,6.63
2022-09-23T17:00:46.984Z,6.65
2022-09-23T17:03:32.657Z,6.25
2022-09-23T17:06:01.540Z,6.00
2022-09-23T17:08:31.571Z,6.35
2022-09-23T17:10:59.049Z,5.05
2022-09-23T17:13:29.740Z,5.00
2022-09-23T17:18:24.889Z,4.35
2022-09-23T17:20:59.465Z,4.35
2022-09-23T17:23:27.004Z,3.80
2022-09-23T17:25:54.229Z,3.70
2022-09-23T17:28:21.848Z,3.60
2022-09-23T17:30:58.136Z,3.45
2022-09-23T17:33:29.263Z,2.90
2022-09-23T17:35:57.005Z,2.80
2022-09-23T17:38:29.437Z,2.53
2022-09-23T17:40:59.161Z,2.88
2022-09-23T17:43:26.567Z,2.92
2022-09-23T17:45:54.610Z,2.63
2022-09-23T17:48:22.638Z,2.40
2022-09-23T17:50:56.196Z,2.28
2022-09-23T17:53:24.074Z,2.10
2022-09-23T17:56:01.958Z,2.17
2022-09-23T17:58:29.775Z,2.17
2022-09-23T18:00:57.035Z,2.67
2022-09-23T18:03:24.815Z,2.10
2022-09-23T18:05:51.942Z,1.92
2022-09-23T18:08:19.076Z,2.13
2022-09-23T18:10:46.095Z,2.30
2022-09-23T18:13:13.163Z,2.40
2022-09-23T18:15:40.158Z,2.13
2022-09-23T18:18:07.187Z,2.10
2022-09-23T18:20:34.102Z,2.58
2022-09-23T18:23:01.008Z,2.33
2022-09-23T18:25:39.126Z,2.42
2022-09-23T18:28:07.124Z,2.40
2022-09-23T18:30:34.066Z,2.58
2022-09-23T18:33:02.258Z,2.70
2022-09-23T18:35:29.183Z,2.30
2022-09-23T18:37:56.412Z,2.33
2022-09-23T18:40:23.453Z,3.05
2022-09-23T18:42:50.569Z,2.00
2022-09-23T18:45:17.820Z,2.35
2022-09-23T18:48:03.416Z,2.15
2022-09-23T18:50:40.323Z,2.53
2022-09-23T18:53:08.361Z,2.38
2022-09-23T18:55:36.180Z,2.42
2022-09-23T18:58:03.380Z,2.47
2022-09-23T19:00:30.615Z,2.80
2022-09-23T19:02:57.794Z,2.80
2022-09-23T19:05:24.824Z,2.65
2022-09-23T19:07:51.967Z,2.50
2022-09-23T19:10:19.249Z,2.50
2022-09-23T19:12:46.718Z,2.70
2022-09-23T19:15:14.179Z,2.60
2022-09-23T19:17:41.245Z,2.90
2022-09-23T19:20:09.531Z,2.90
2022-09-23T19:22:36.529Z,2.80
2022-09-23T19:25:03.842Z,2.92
2022-09-23T19:27:30.873Z,2.67
2022-09-23T19:29:57.887Z,3.00
2022-09-23T19:32:26.839Z,3.00
2022-09-23T19:34:53.810Z,2.38
2022-09-23T19:37:21.097Z,2.60
2022-09-23T19:39:48.256Z,2.60
2022-09-23T19:42:15.264Z,3.13
2022-09-23T19:44:42.419Z,2.72
2022-09-23T19:47:15.392Z,2.60
2022-09-23T19:49:42.612Z,2.97
2022-09-23T19:52:09.541Z,2.50
2022-09-23T19:54:37.226Z,2.92
2022-09-23T19:57:04.330Z,3.05
2022-09-23T19:59:31.409Z,3.30
2022-09-23T20:01:58.351Z,2.85
2022-09-23T20:04:26.290Z,2.80
2022-09-23T20:06:53.231Z,3.13
2022-09-23T20:09:20.694Z,3.10
2022-09-23T20:11:47.761Z,3.13
2022-09-23T20:14:15.218Z,3.20
2022-09-23T20:16:42.198Z,3.00
2022-09-23T20:19:09.866Z,2.67
2022-09-23T20:21:36.747Z,3.20
2022-09-23T20:24:07.632Z,3.42
2022-09-23T20:26:53.303Z,3.10
2022-09-23T20:29:20.188Z,3.13
2022-09-23T20:31:47.541Z,3.20
2022-09-23T20:34:14.645Z,3.13
2022-09-23T20:36:42.307Z,3.30
2022-09-23T20:39:09.793Z,3.60
2022-09-23T20:41:37.966Z,3.55
2022-09-23T20:44:07.558Z,3.83
2022-09-23T20:46:35.107Z,3.03
2022-09-23T20:49:02.771Z,3.67
2022-09-23T20:51:29.808Z,3.75
2022-09-23T20:53:56.702Z,3.45
2022-09-23T20:56:23.679Z,3.83
2022-09-23T20:58:54.087Z,3.63
2022-09-23T21:01:21.220Z,3.40
2022-09-23T21:03:49.340Z,3.60
2022-09-23T21:06:17.030Z,4.05
2022-09-23T21:08:47.132Z,3.53
2022-09-23T21:11:15.659Z,3.63
2022-09-23T21:13:47.179Z,3.40
2022-09-23T21:16:16.140Z,3.50
2022-09-23T21:18:43.672Z,3.30
2022-09-23T21:21:10.937Z,3.00
2022-09-23T21:23:38.821Z,3.30
2022-09-23T21:26:13.023Z,2.50
2022-09-23T21:28:40.599Z,2.40
2022-09-23T21:31:28.616Z,2.90
2022-09-23T21:34:00.248Z,2.95
2022-09-23T21:38:58.239Z,3.30
2022-09-23T21:41:25.340Z,2.90
2022-09-23T21:43:52.421Z,2.95
2022-09-23T21:46:20.801Z,2.80
2022-09-23T21:48:53.743Z,3.10
2022-09-23T21:51:28.471Z,2.60
2022-09-23T21:53:56.833Z,2.83
2022-09-23T21:56:25.293Z,2.67
2022-09-23T21:58:53.643Z,2.80
2022-09-23T22:01:21.769Z,2.90
2022-09-23T22:03:50.883Z,2.80
2022-09-23T22:06:21.533Z,2.83
2022-09-23T22:09:02.387Z,2.70
2022-09-23T22:11:49.295Z,2.55
2022-09-23T22:14:17.194Z,3.25
2022-09-23T22:16:44.256Z,2.72
2022-09-23T22:19:12.355Z,3.28
2022-09-23T22:21:40.074Z,3.45
2022-09-23T22:24:08.420Z,3.10
2022-09-23T22:26:37.530Z,3.13
2022-09-23T22:29:23.809Z,3.10
2022-09-23T22:32:09.576Z,2.92
2022-09-23T22:34:49.425Z,3.00
2022-09-23T22:37:18.244Z,3.28
2022-09-23T22:39:45.297Z,2.83
2022-09-23T22:42:13.163Z,3.00
2022-09-23T22:44:40.241Z,3.00
2022-09-23T22:47:07.352Z,3.05
2022-09-23T22:49:34.269Z,3.10
2022-09-23T22:52:04.065Z,3.25
2022-09-23T22:54:33.912Z,2.80
2022-09-23T22:57:03.386Z,2.92
2022-09-23T22:59:30.329Z,2.97
2022-09-23T23:01:57.694Z,2.60
2022-09-23T23:04:24.613Z,3.17
2022-09-23T23:06:52.163Z,3.33
2022-09-23T23:09:19.365Z,3.03
2022-09-23T23:11:47.180Z,2.90
2022-09-23T23:14:16.765Z,3.10
2022-09-23T23:16:45.263Z,3.58
2022-09-23T23:19:14.150Z,3.47
2022-09-23T23:21:43.459Z,3.85
2022-09-23T23:24:18.702Z,4.10
2022-09-23T23:26:45.721Z,3.85
2022-09-23T23:29:13.794Z,4.22
2022-09-23T23:31:41.016Z,3.90
2022-09-23T23:34:08.486Z,4.60
2022-09-23T23:36:35.400Z,4.20
2022-09-23T23:39:02.284Z,4.40
2022-09-23T23:41:29.206Z,4.30
2022-09-23T23:43:58.387Z,4.40
2022-09-23T23:46:26.575Z,4.45
2022-09-23T23:48:54.241Z,4.43
2022-09-23T23:51:21.438Z,4.50
2022-09-23T23:53:48.417Z,4.63
2022-09-23T23:56:17.600Z,4.35
2022-09-23T23:58:44.936Z,4.30
